Aérodrome :
LOGIN :

S'inscrire | Disclaimer

   EN    FR    IT 

 










Légende :    VFR   VFR Marginal   IFR   IFR Intensif   IFR Très Intensif
Visi : 
Plafond : 
>= 8 km
>= 3000ft
5 à 8 km
1000 à 3000 ft
1500m à 5 km
500 à 1000 ft
800 à 1500m
200 à 500 ft
< 800m
< 200 ft
Symboles :   Orages  Brouillard  Fortes neiges  Fortes précipitations  Vent > 20 kt
SIGMETs :   Divers  Orages  Givrage  Turbulence  Onde Orograph.  Cendres Volcan.






- Altitude de l'aérodrome : 322 ft


LHSN - Szolnok

DERNIER METAR :
  • 092245Z 01006KT 2000 -RA BR SCT004 OVC050 05/05 Q1009 RESHRA NOSIG RMK YLO

METARs EXPIRÉS :
  • 092215Z 05004KT 3000 -SHRA BR SCT004 OVC050 05/05 Q1009 NOSIG RMK YLO
  • 092145Z 06006KT 2000 BCFG BR FEW003 BKN050 OVC083 05/05 Q1008 TEMPO 1500 BR -RA SHRA RMK YLO
  • 092115Z 08006KT 1500 BCFG BR SCT003 SCT050 OVC083 05/05 Q1008 NOSIG RMK AMB
  • 092045Z 04006KT 1500 MIBCFG BR SCT003 OVC050 05/05 Q1008 NOSIG RMK AMB
  • 092015Z 02006KT 2000 BR OVC050 05/05 Q1008 TEMPO 1500 BR RMK YLO
  • 091945Z 36004KT 3000 BR BKN055 OVC062 05/05 Q1008 NOSIG RMK YLO

TAF TAF LHSN
Valide du 09 à 21h jusqu'au 10 à 06h UTC


092015Z 0921/1006 05006KT 6000 BKN045 OVC060
PROB40
TEMPO 0921/1003 1500 BR -RA SHRA BKN025 OVC050
BECMG 1000/1003 36007KT
TEMPO 1003/1006 5000 BR RA SHRA BKN020 OVC040



MET'MAP, la Météo Aéronautique d'un coup d'oeil ! - Copyright ORBIFLY Décembre 2007 - Disclaimer

ORBIFLY MET'MAP TEAM :

Programmation & Développement : Alexandra Zaïnal
Sur une idée originale de : Baudouin d'Aumeries
Assistance à la programmation : Marc-Olivier Méhu
Soutien technique & logistique : Manuel Goepfert

Contact : metmap@orbifly.com




SOURCES & CREDITS :

   NOAA